sensor_id;sensor_type;location;lat;lon;timestamp;temperature;humidity
41953;DHT22;63613;28.200;112.870;2023-03-25T00:01:09;14.40;74.80
41953;DHT22;63613;28.200;112.870;2023-03-25T00:03:40;14.50;74.90
41953;DHT22;63613;28.200;112.870;2023-03-25T00:06:09;14.40;74.80
41953;DHT22;63613;28.200;112.870;2023-03-25T00:08:37;14.40;74.90
41953;DHT22;63613;28.200;112.870;2023-03-25T00:11:05;14.40;75.00
41953;DHT22;63613;28.200;112.870;2023-03-25T00:13:52;14.40;74.90
41953;DHT22;63613;28.200;112.870;2023-03-25T00:16:19;14.40;75.00
41953;DHT22;63613;28.200;112.870;2023-03-25T00:18:46;14.50;75.00
41953;DHT22;63613;28.200;112.870;2023-03-25T00:21:13;14.50;75.00
41953;DHT22;63613;28.200;112.870;2023-03-25T00:23:40;14.40;74.90
41953;DHT22;63613;28.200;112.870;2023-03-25T00:26:07;14.50;74.80
41953;DHT22;63613;28.200;112.870;2023-03-25T00:28:37;14.50;74.80
41953;DHT22;63613;28.200;112.870;2023-03-25T00:31:11;14.50;74.70
41953;DHT22;63613;28.200;112.870;2023-03-25T00:33:38;14.50;74.80
41953;DHT22;63613;28.200;112.870;2023-03-25T00:36:07;14.50;74.90
41953;DHT22;63613;28.200;112.870;2023-03-25T00:38:34;14.50;74.90
41953;DHT22;63613;28.200;112.870;2023-03-25T00:41:17;14.50;74.80
41953;DHT22;63613;28.200;112.870;2023-03-25T00:43:52;14.50;74.80
41953;DHT22;63613;28.200;112.870;2023-03-25T00:46:20;14.60;74.80
41953;DHT22;63613;28.200;112.870;2023-03-25T00:48:48;14.50;74.90
41953;DHT22;63613;28.200;112.870;2023-03-25T00:51:16;14.50;74.90
41953;DHT22;63613;28.200;112.870;2023-03-25T00:53:44;14.50;75.00
41953;DHT22;63613;28.200;112.870;2023-03-25T00:56:15;14.50;75.00
41953;DHT22;63613;28.200;112.870;2023-03-25T00:58:42;14.50;75.00
41953;DHT22;63613;28.200;112.870;2023-03-25T01:01:15;14.60;74.90
41953;DHT22;63613;28.200;112.870;2023-03-25T01:04:02;14.60;74.70
41953;DHT22;63613;28.200;112.870;2023-03-25T01:06:32;14.60;74.70
41953;DHT22;63613;28.200;112.870;2023-03-25T01:09:01;14.50;74.60
41953;DHT22;63613;28.200;112.870;2023-03-25T01:11:31;14.50;74.60
41953;DHT22;63613;28.200;112.870;2023-03-25T01:14:01;14.50;74.60
41953;DHT22;63613;28.200;112.870;2023-03-25T01:16:31;14.50;74.50
41953;DHT22;63613;28.200;112.870;2023-03-25T01:18:58;14.60;74.70
41953;DHT22;63613;28.200;112.870;2023-03-25T01:21:25;14.60;74.40
41953;DHT22;63613;28.200;112.870;2023-03-25T01:24:13;14.70;74.20
41953;DHT22;63613;28.200;112.870;2023-03-25T01:26:42;14.70;74.00
41953;DHT22;63613;28.200;112.870;2023-03-25T01:29:11;14.70;73.90
41953;DHT22;63613;28.200;112.870;2023-03-25T01:31:38;14.70;73.80
41953;DHT22;63613;28.200;112.870;2023-03-25T01:34:06;14.70;73.80
41953;DHT22;63613;28.200;112.870;2023-03-25T01:36:34;14.70;73.70
41953;DHT22;63613;28.200;112.870;2023-03-25T01:39:08;14.70;73.60
41953;DHT22;63613;28.200;112.870;2023-03-25T01:41:36;14.70;73.70
41953;DHT22;63613;28.200;112.870;2023-03-25T01:46:51;14.70;73.90
41953;DHT22;63613;28.200;112.870;2023-03-25T01:49:25;14.60;74.00
41953;DHT22;63613;28.200;112.870;2023-03-25T01:52:08;14.60;73.90
41953;DHT22;63613;28.200;112.870;2023-03-25T01:54:37;14.70;74.00
41953;DHT22;63613;28.200;112.870;2023-03-25T01:57:06;14.70;74.00
41953;DHT22;63613;28.200;112.870;2023-03-25T01:59:34;14.70;74.00
41953;DHT22;63613;28.200;112.870;2023-03-25T02:02:23;14.60;74.00
41953;DHT22;63613;28.200;112.870;2023-03-25T02:05:20;14.60;74.00
41953;DHT22;63613;28.200;112.870;2023-03-25T02:07:54;14.60;73.80
41953;DHT22;63613;28.200;112.870;2023-03-25T02:10:23;14.60;73.80
41953;DHT22;63613;28.200;112.870;2023-03-25T02:12:50;14.70;73.80
41953;DHT22;63613;28.200;112.870;2023-03-25T02:15:17;14.60;73.90
41953;DHT22;63613;28.200;112.870;2023-03-25T02:20:48;14.70;74.10
41953;DHT22;63613;28.200;112.870;2023-03-25T02:32:38;14.80;74.30
41953;DHT22;63613;28.200;112.870;2023-03-25T02:41:51;14.70;74.50
41953;DHT22;63613;28.200;112.870;2023-03-25T02:44:38;14.70;74.60
41953;DHT22;63613;28.200;112.870;2023-03-25T02:47:16;14.80;74.60
41953;DHT22;63613;28.200;112.870;2023-03-25T02:49:52;14.80;74.70
41953;DHT22;63613;28.200;112.870;2023-03-25T02:52:43;14.80;74.60
41953;DHT22;63613;28.200;112.870;2023-03-25T02:55:14;14.80;74.60
41953;DHT22;63613;28.200;112.870;2023-03-25T02:57:45;14.80;74.60
41953;DHT22;63613;28.200;112.870;2023-03-25T03:00:25;14.80;74.70
41953;DHT22;63613;28.200;112.870;2023-03-25T03:02:58;14.80;74.70
41953;DHT22;63613;28.200;112.870;2023-03-25T03:05:29;14.80;74.80
41953;DHT22;63613;28.200;112.870;2023-03-25T03:08:34;14.80;74.90
41953;DHT22;63613;28.200;112.870;2023-03-25T03:14:29;14.90;75.20
41953;DHT22;63613;28.200;112.870;2023-03-25T03:17:12;14.80;75.20
41953;DHT22;63613;28.200;112.870;2023-03-25T03:23:31;14.90;75.10
41953;DHT22;63613;28.200;112.870;2023-03-25T03:26:10;14.90;75.10
41953;DHT22;63613;28.200;112.870;2023-03-25T03:29:28;14.90;75.20
41953;DHT22;63613;28.200;112.870;2023-03-25T03:32:18;14.90;74.90
41953;DHT22;63613;28.200;112.870;2023-03-25T03:34:42;14.90;74.90
41953;DHT22;63613;28.200;112.870;2023-03-25T03:37:18;14.90;74.90
41953;DHT22;63613;28.200;112.870;2023-03-25T03:39:48;15.00;75.00
41953;DHT22;63613;28.200;112.870;2023-03-25T03:42:29;14.90;75.00
41953;DHT22;63613;28.200;112.870;2023-03-25T03:45:09;14.90;74.90
41953;DHT22;63613;28.200;112.870;2023-03-25T03:47:44;14.90;75.20
41953;DHT22;63613;28.200;112.870;2023-03-25T03:50:19;14.90;75.10
41953;DHT22;63613;28.200;112.870;2023-03-25T03:53:05;14.90;75.10
41953;DHT22;63613;28.200;112.870;2023-03-25T03:55:46;14.90;75.20
41953;DHT22;63613;28.200;112.870;2023-03-25T03:58:21;14.90;75.30
41953;DHT22;63613;28.200;112.870;2023-03-25T04:03:33;14.90;75.00
41953;DHT22;63613;28.200;112.870;2023-03-25T04:06:54;14.90;74.90
41953;DHT22;63613;28.200;112.870;2023-03-25T04:09:35;15.00;74.80
41953;DHT22;63613;28.200;112.870;2023-03-25T04:12:22;15.00;74.90
41953;DHT22;63613;28.200;112.870;2023-03-25T04:14:51;15.00;75.10
41953;DHT22;63613;28.200;112.870;2023-03-25T04:17:18;15.00;75.30
41953;DHT22;63613;28.200;112.870;2023-03-25T04:19:45;15.00;75.40
41953;DHT22;63613;28.200;112.870;2023-03-25T04:22:16;15.10;75.40
41953;DHT22;63613;28.200;112.870;2023-03-25T04:25:12;15.10;75.40
41953;DHT22;63613;28.200;112.870;2023-03-25T04:27:41;15.10;75.40
41953;DHT22;63613;28.200;112.870;2023-03-25T04:30:14;15.10;75.40
41953;DHT22;63613;28.200;112.870;2023-03-25T04:32:45;15.10;75.40
41953;DHT22;63613;28.200;112.870;2023-03-25T04:35:13;15.10;75.40
41953;DHT22;63613;28.200;112.870;2023-03-25T04:37:42;15.00;75.40
41953;DHT22;63613;28.200;112.870;2023-03-25T04:40:17;15.10;75.50
41953;DHT22;63613;28.200;112.870;2023-03-25T04:42:46;15.00;75.40
41953;DHT22;63613;28.200;112.870;2023-03-25T04:45:14;15.00;75.50
41953;DHT22;63613;28.200;112.870;2023-03-25T04:47:46;15.10;75.50
41953;DHT22;63613;28.200;112.870;2023-03-25T04:50:29;15.10;75.40
41953;DHT22;63613;28.200;112.870;2023-03-25T04:52:59;15.10;75.40
41953;DHT22;63613;28.200;112.870;2023-03-25T04:55:26;15.10;75.40
41953;DHT22;63613;28.200;112.870;2023-03-25T04:57:54;15.10;75.50
41953;DHT22;63613;28.200;112.870;2023-03-25T05:00:23;15.10;75.40
41953;DHT22;63613;28.200;112.870;2023-03-25T05:02:54;15.10;75.40
41953;DHT22;63613;28.200;112.870;2023-03-25T05:05:23;15.10;75.40
41953;DHT22;63613;28.200;112.870;2023-03-25T05:07:52;15.10;75.50
41953;DHT22;63613;28.200;112.870;2023-03-25T05:10:26;15.10;75.50
41953;DHT22;63613;28.200;112.870;2023-03-25T05:13:13;15.10;75.30
41953;DHT22;63613;28.200;112.870;2023-03-25T05:15:40;15.10;75.10
41953;DHT22;63613;28.200;112.870;2023-03-25T05:18:13;15.10;74.90
41953;DHT22;63613;28.200;112.870;2023-03-25T05:20:43;15.20;74.80
41953;DHT22;63613;28.200;112.870;2023-03-25T05:23:11;15.20;74.90
41953;DHT22;63613;28.200;112.870;2023-03-25T05:25:45;15.20;74.90
41953;DHT22;63613;28.200;112.870;2023-03-25T05:28:13;15.20;75.00
41953;DHT22;63613;28.200;112.870;2023-03-25T05:30:41;15.20;75.00
41953;DHT22;63613;28.200;112.870;2023-03-25T05:33:12;15.20;75.00
41953;DHT22;63613;28.200;112.870;2023-03-25T05:35:45;15.20;75.10
41953;DHT22;63613;28.200;112.870;2023-03-25T05:38:13;15.20;75.20
41953;DHT22;63613;28.200;112.870;2023-03-25T05:40:49;15.20;75.00
41953;DHT22;63613;28.200;112.870;2023-03-25T05:43:38;15.20;74.80
41953;DHT22;63613;28.200;112.870;2023-03-25T05:46:27;15.20;74.10
41953;DHT22;63613;28.200;112.870;2023-03-25T05:49:01;15.20;73.50
41953;DHT22;63613;28.200;112.870;2023-03-25T05:51:48;15.20;72.70
41953;DHT22;63613;28.200;112.870;2023-03-25T05:54:19;15.30;71.90
41953;DHT22;63613;28.200;112.870;2023-03-25T05:56:46;15.20;71.70
41953;DHT22;63613;28.200;112.870;2023-03-25T05:59:13;15.30;71.90
41953;DHT22;63613;28.200;112.870;2023-03-25T06:01:40;15.30;71.80
41953;DHT22;63613;28.200;112.870;2023-03-25T06:04:13;15.30;71.80
41953;DHT22;63613;28.200;112.870;2023-03-25T06:06:41;15.30;71.70
41953;DHT22;63613;28.200;112.870;2023-03-25T06:09:08;15.30;71.80
41953;DHT22;63613;28.200;112.870;2023-03-25T06:11:36;15.30;72.00
41953;DHT22;63613;28.200;112.870;2023-03-25T06:14:04;15.30;71.70
41953;DHT22;63613;28.200;112.870;2023-03-25T06:16:31;15.30;71.50
41953;DHT22;63613;28.200;112.870;2023-03-25T06:18:59;15.30;71.80
41953;DHT22;63613;28.200;112.870;2023-03-25T06:21:27;15.30;71.70
41953;DHT22;63613;28.200;112.870;2023-03-25T06:23:59;15.30;71.60
41953;DHT22;63613;28.200;112.870;2023-03-25T06:26:29;15.30;71.20
41953;DHT22;63613;28.200;112.870;2023-03-25T06:28:57;15.20;70.90
41953;DHT22;63613;28.200;112.870;2023-03-25T06:34:12;15.20;70.40
41953;DHT22;63613;28.200;112.870;2023-03-25T06:36:39;15.30;70.60
41953;DHT22;63613;28.200;112.870;2023-03-25T06:39:10;15.30;71.00
41953;DHT22;63613;28.200;112.870;2023-03-25T06:41:40;15.30;71.00
41953;DHT22;63613;28.200;112.870;2023-03-25T06:44:08;15.30;71.20
41953;DHT22;63613;28.200;112.870;2023-03-25T06:46:56;15.30;71.30
41953;DHT22;63613;28.200;112.870;2023-03-25T06:49:30;15.30;71.50
41953;DHT22;63613;28.200;112.870;2023-03-25T06:52:03;15.30;71.70
41953;DHT22;63613;28.200;112.870;2023-03-25T06:54:31;15.30;71.70
41953;DHT22;63613;28.200;112.870;2023-03-25T06:56:58;15.30;71.80
41953;DHT22;63613;28.200;112.870;2023-03-25T06:59:24;15.30;72.00
41953;DHT22;63613;28.200;112.870;2023-03-25T07:01:51;15.30;72.00
41953;DHT22;63613;28.200;112.870;2023-03-25T07:04:18;15.30;72.10
41953;DHT22;63613;28.200;112.870;2023-03-25T07:06:46;15.30;72.10
41953;DHT22;63613;28.200;112.870;2023-03-25T07:09:15;15.30;72.00
41953;DHT22;63613;28.200;112.870;2023-03-25T07:11:43;15.30;71.70
41953;DHT22;63613;28.200;112.870;2023-03-25T07:14:10;15.40;71.70
41953;DHT22;63613;28.200;112.870;2023-03-25T07:16:38;15.40;71.50
41953;DHT22;63613;28.200;112.870;2023-03-25T07:19:05;15.40;71.40
41953;DHT22;63613;28.200;112.870;2023-03-25T07:21:31;15.40;71.10
41953;DHT22;63613;28.200;112.870;2023-03-25T07:23:58;15.40;70.50
41953;DHT22;63613;28.200;112.870;2023-03-25T07:26:25;15.40;70.30
41953;DHT22;63613;28.200;112.870;2023-03-25T07:28:54;15.40;70.10
41953;DHT22;63613;28.200;112.870;2023-03-25T07:31:23;15.40;70.40
41953;DHT22;63613;28.200;112.870;2023-03-25T07:33:50;15.50;75.10
41953;DHT22;63613;28.200;112.870;2023-03-25T07:36:20;15.50;74.70
41953;DHT22;63613;28.200;112.870;2023-03-25T07:38:52;15.60;73.30
41953;DHT22;63613;28.200;112.870;2023-03-25T07:41:23;15.50;72.50
41953;DHT22;63613;28.200;112.870;2023-03-25T07:43:50;15.50;72.00
41953;DHT22;63613;28.200;112.870;2023-03-25T07:46:17;15.50;71.80
41953;DHT22;63613;28.200;112.870;2023-03-25T07:48:48;15.50;71.70
41953;DHT22;63613;28.200;112.870;2023-03-25T07:51:18;15.50;71.80
41953;DHT22;63613;28.200;112.870;2023-03-25T07:53:46;15.50;72.10
41953;DHT22;63613;28.200;112.870;2023-03-25T07:56:13;15.50;72.30
41953;DHT22;63613;28.200;112.870;2023-03-25T07:58:43;15.50;72.30
41953;DHT22;63613;28.200;112.870;2023-03-25T08:01:13;15.50;72.40
41953;DHT22;63613;28.200;112.870;2023-03-25T08:03:39;15.60;72.50
41953;DHT22;63613;28.200;112.870;2023-03-25T08:06:11;15.50;72.60
41953;DHT22;63613;28.200;112.870;2023-03-25T08:08:41;15.50;72.40
41953;DHT22;63613;28.200;112.870;2023-03-25T08:11:11;15.60;72.50
41953;DHT22;63613;28.200;112.870;2023-03-25T08:13:40;15.60;72.60
41953;DHT22;63613;28.200;112.870;2023-03-25T08:16:13;15.70;72.50
41953;DHT22;63613;28.200;112.870;2023-03-25T08:18:41;15.60;72.60
41953;DHT22;63613;28.200;112.870;2023-03-25T08:21:14;15.70;72.60
41953;DHT22;63613;28.200;112.870;2023-03-25T08:23:41;15.70;72.50
41953;DHT22;63613;28.200;112.870;2023-03-25T08:26:09;15.70;72.50
41953;DHT22;63613;28.200;112.870;2023-03-25T08:28:36;15.70;72.40
41953;DHT22;63613;28.200;112.870;2023-03-25T08:31:05;15.70;72.30
41953;DHT22;63613;28.200;112.870;2023-03-25T08:33:35;15.80;72.30
41953;DHT22;63613;28.200;112.870;2023-03-25T08:36:06;15.70;72.30
41953;DHT22;63613;28.200;112.870;2023-03-25T08:38:35;15.70;72.20
41953;DHT22;63613;28.200;112.870;2023-03-25T08:41:04;15.80;72.10
41953;DHT22;63613;28.200;112.870;2023-03-25T08:43:31;15.80;71.90
41953;DHT22;63613;28.200;112.870;2023-03-25T08:46:00;15.80;71.90
41953;DHT22;63613;28.200;112.870;2023-03-25T08:48:27;15.70;71.90
41953;DHT22;63613;28.200;112.870;2023-03-25T08:50:56;15.80;71.50
41953;DHT22;63613;28.200;112.870;2023-03-25T08:53:24;15.80;71.40
41953;DHT22;63613;28.200;112.870;2023-03-25T08:55:56;15.70;71.60
41953;DHT22;63613;28.200;112.870;2023-03-25T08:58:25;15.80;71.70
41953;DHT22;63613;28.200;112.870;2023-03-25T09:00:54;15.70;71.90
41953;DHT22;63613;28.200;112.870;2023-03-25T09:03:22;15.70;72.10
41953;DHT22;63613;28.200;112.870;2023-03-25T09:05:50;15.70;72.20
41953;DHT22;63613;28.200;112.870;2023-03-25T09:08:18;15.70;73.30
41953;DHT22;63613;28.200;112.870;2023-03-25T09:10:45;15.80;75.80
41953;DHT22;63613;28.200;112.870;2023-03-25T09:13:32;15.80;75.60
41953;DHT22;63613;28.200;112.870;2023-03-25T09:16:00;15.80;75.40
41953;DHT22;63613;28.200;112.870;2023-03-25T09:18:28;15.80;75.50
41953;DHT22;63613;28.200;112.870;2023-03-25T09:20:59;15.80;75.80
41953;DHT22;63613;28.200;112.870;2023-03-25T09:23:46;15.80;76.40
41953;DHT22;63613;28.200;112.870;2023-03-25T09:26:14;15.80;76.90
41953;DHT22;63613;28.200;112.870;2023-03-25T09:28:41;15.80;77.40
41953;DHT22;63613;28.200;112.870;2023-03-25T09:31:08;15.80;77.80
41953;DHT22;63613;28.200;112.870;2023-03-25T09:33:35;15.90;78.40
41953;DHT22;63613;28.200;112.870;2023-03-25T09:36:03;15.90;79.00
41953;DHT22;63613;28.200;112.870;2023-03-25T09:38:30;15.90;80.20
41953;DHT22;63613;28.200;112.870;2023-03-25T09:41:03;16.00;81.50
41953;DHT22;63613;28.200;112.870;2023-03-25T09:43:46;16.10;81.70
41953;DHT22;63613;28.200;112.870;2023-03-25T09:46:37;16.10;79.50
41953;DHT22;63613;28.200;112.870;2023-03-25T09:49:12;16.20;72.80
41953;DHT22;63613;28.200;112.870;2023-03-25T09:51:41;16.30;70.10
41953;DHT22;63613;28.200;112.870;2023-03-25T09:57:07;16.30;68.20
41953;DHT22;63613;28.200;112.870;2023-03-25T09:59:44;16.40;67.00
41953;DHT22;63613;28.200;112.870;2023-03-25T10:02:37;16.50;67.50
41953;DHT22;63613;28.200;112.870;2023-03-25T10:10:47;16.70;65.30
41953;DHT22;63613;28.200;112.870;2023-03-25T10:17:02;16.80;64.40
41953;DHT22;63613;28.200;112.870;2023-03-25T10:19:54;16.90;64.60
41953;DHT22;63613;28.200;112.870;2023-03-25T10:22:50;16.90;64.20
41953;DHT22;63613;28.200;112.870;2023-03-25T10:25:24;17.00;63.70
41953;DHT22;63613;28.200;112.870;2023-03-25T10:27:54;17.00;63.60
41953;DHT22;63613;28.200;112.870;2023-03-25T10:30:29;17.10;63.20
41953;DHT22;63613;28.200;112.870;2023-03-25T10:33:04;17.10;62.70
41953;DHT22;63613;28.200;112.870;2023-03-25T10:35:39;17.10;62.30
41953;DHT22;63613;28.200;112.870;2023-03-25T10:38:17;17.30;61.50
41953;DHT22;63613;28.200;112.870;2023-03-25T10:40:50;17.30;62.80
41953;DHT22;63613;28.200;112.870;2023-03-25T10:47:21;17.40;66.30
41953;DHT22;63613;28.200;112.870;2023-03-25T10:49:25;17.50;68.00
41953;DHT22;63613;28.200;112.870;2023-03-25T10:52:03;17.60;69.40
41953;DHT22;63613;28.200;112.870;2023-03-25T10:54:35;17.60;70.70
41953;DHT22;63613;28.200;112.870;2023-03-25T10:57:09;17.70;71.50
41953;DHT22;63613;28.200;112.870;2023-03-25T10:59:49;17.80;72.20
41953;DHT22;63613;28.200;112.870;2023-03-25T11:02:21;17.80;72.90
41953;DHT22;63613;28.200;112.870;2023-03-25T11:05:10;17.80;73.60
41953;DHT22;63613;28.200;112.870;2023-03-25T11:07:56;17.80;74.20
41953;DHT22;63613;28.200;112.870;2023-03-25T11:10:33;17.90;74.50
41953;DHT22;63613;28.200;112.870;2023-03-25T11:13:01;18.00;74.80
41953;DHT22;63613;28.200;112.870;2023-03-25T11:15:48;18.10;75.00
41953;DHT22;63613;28.200;112.870;2023-03-25T11:18:21;18.10;75.40
41953;DHT22;63613;28.200;112.870;2023-03-25T11:21:13;18.00;75.90
41953;DHT22;63613;28.200;112.870;2023-03-25T11:23:47;18.20;76.10
41953;DHT22;63613;28.200;112.870;2023-03-25T11:26:27;18.20;75.80
41953;DHT22;63613;28.200;112.870;2023-03-25T11:29:05;18.30;75.90
41953;DHT22;63613;28.200;112.870;2023-03-25T11:31:37;18.20;75.60
41953;DHT22;63613;28.200;112.870;2023-03-25T11:36:54;18.10;73.20
41953;DHT22;63613;28.200;112.870;2023-03-25T11:39:34;18.10;71.80
41953;DHT22;63613;28.200;112.870;2023-03-25T11:42:40;18.10;71.40
41953;DHT22;63613;28.200;112.870;2023-03-25T11:45:37;18.10;71.20
41953;DHT22;63613;28.200;112.870;2023-03-25T11:48:21;18.10;70.40
41953;DHT22;63613;28.200;112.870;2023-03-25T11:50:56;18.00;70.40
41953;DHT22;63613;28.200;112.870;2023-03-25T11:53:27;18.00;70.60
41953;DHT22;63613;28.200;112.870;2023-03-25T11:56:19;17.90;70.70
41953;DHT22;63613;28.200;112.870;2023-03-25T11:58:48;17.90;70.80
41953;DHT22;63613;28.200;112.870;2023-03-25T12:01:59;17.80;70.90
41953;DHT22;63613;28.200;112.870;2023-03-25T12:04:23;17.80;70.90
41953;DHT22;63613;28.200;112.870;2023-03-25T12:07:18;17.80;71.00
41953;DHT22;63613;28.200;112.870;2023-03-25T12:09:58;17.60;71.20
41953;DHT22;63613;28.200;112.870;2023-03-25T12:12:46;17.60;71.40
41953;DHT22;63613;28.200;112.870;2023-03-25T12:24:29;17.30;71.90
41953;DHT22;63613;28.200;112.870;2023-03-25T12:41:11;17.00;71.80
41953;DHT22;63613;28.200;112.870;2023-03-25T12:49:25;16.90;71.40
41953;DHT22;63613;28.200;112.870;2023-03-25T12:52:48;16.80;71.40
41953;DHT22;63613;28.200;112.870;2023-03-25T12:58:14;16.60;71.50
41953;DHT22;63613;28.200;112.870;2023-03-25T13:01:08;16.60;71.60
41953;DHT22;63613;28.200;112.870;2023-03-25T13:06:41;16.50;71.60
41953;DHT22;63613;28.200;112.870;2023-03-25T13:09:20;16.40;71.60
41953;DHT22;63613;28.200;112.870;2023-03-25T13:12:10;16.30;71.50
41953;DHT22;63613;28.200;112.870;2023-03-25T13:15:04;16.30;71.30
41953;DHT22;63613;28.200;112.870;2023-03-25T13:17:50;16.30;71.10
41953;DHT22;63613;28.200;112.870;2023-03-25T13:20:25;16.20;70.90
41953;DHT22;63613;28.200;112.870;2023-03-25T13:22:58;16.10;71.10
41953;DHT22;63613;28.200;112.870;2023-03-25T13:25:45;16.10;70.80
41953;DHT22;63613;28.200;112.870;2023-03-25T13:28:22;16.10;70.90
41953;DHT22;63613;28.200;112.870;2023-03-25T13:30:55;16.00;71.30
41953;DHT22;63613;28.200;112.870;2023-03-25T13:33:29;16.00;71.60
41953;DHT22;63613;28.200;112.870;2023-03-25T13:38:58;16.00;71.10
41953;DHT22;63613;28.200;112.870;2023-03-25T13:41:36;15.90;70.80
41953;DHT22;63613;28.200;112.870;2023-03-25T13:44:27;15.90;70.90
41953;DHT22;63613;28.200;112.870;2023-03-25T13:47:24;15.80;71.10
41953;DHT22;63613;28.200;112.870;2023-03-25T13:50:31;15.80;71.40
41953;DHT22;63613;28.200;112.870;2023-03-25T13:55:39;15.80;72.10
41953;DHT22;63613;28.200;112.870;2023-03-25T13:58:56;15.80;72.40
41953;DHT22;63613;28.200;112.870;2023-03-25T14:04:32;15.80;72.50
41953;DHT22;63613;28.200;112.870;2023-03-25T14:13:19;15.70;73.00
41953;DHT22;63613;28.200;112.870;2023-03-25T14:16:04;15.60;73.20
41953;DHT22;63613;28.200;112.870;2023-03-25T14:19:21;15.60;73.30
41953;DHT22;63613;28.200;112.870;2023-03-25T14:21:47;15.60;73.30
41953;DHT22;63613;28.200;112.870;2023-03-25T14:24:32;15.60;73.50
41953;DHT22;63613;28.200;112.870;2023-03-25T14:29:52;15.50;73.90
41953;DHT22;63613;28.200;112.870;2023-03-25T14:34:48;15.50;74.00
41953;DHT22;63613;28.200;112.870;2023-03-25T14:37:24;15.50;74.00
41953;DHT22;63613;28.200;112.870;2023-03-25T14:39:56;15.50;74.20
41953;DHT22;63613;28.200;112.870;2023-03-25T14:42:57;15.50;74.30
41953;DHT22;63613;28.200;112.870;2023-03-25T14:47:57;15.40;74.50
41953;DHT22;63613;28.200;112.870;2023-03-25T14:52:58;15.50;74.50
41953;DHT22;63613;28.200;112.870;2023-03-25T14:55:30;15.50;74.60
41953;DHT22;63613;28.200;112.870;2023-03-25T14:58:12;15.50;74.50
41953;DHT22;63613;28.200;112.870;2023-03-25T15:01:03;15.50;74.60
41953;DHT22;63613;28.200;112.870;2023-03-25T15:03:38;15.50;74.70
41953;DHT22;63613;28.200;112.870;2023-03-25T15:06:16;15.50;74.70
41953;DHT22;63613;28.200;112.870;2023-03-25T15:08:54;15.40;74.80
41953;DHT22;63613;28.200;112.870;2023-03-25T15:11:30;15.40;74.70
41953;DHT22;63613;28.200;112.870;2023-03-25T15:14:21;15.40;74.60
41953;DHT22;63613;28.200;112.870;2023-03-25T15:16:59;15.40;74.60
41953;DHT22;63613;28.200;112.870;2023-03-25T15:19:29;15.40;74.70
41953;DHT22;63613;28.200;112.870;2023-03-25T15:22:19;15.40;74.70
41953;DHT22;63613;28.200;112.870;2023-03-25T15:24:49;15.40;74.80
41953;DHT22;63613;28.200;112.870;2023-03-25T15:38:36;15.40;75.20
41953;DHT22;63613;28.200;112.870;2023-03-25T15:41:18;15.40;75.20
41953;DHT22;63613;28.200;112.870;2023-03-25T15:44:15;15.40;75.20
41953;DHT22;63613;28.200;112.870;2023-03-25T15:50:06;15.40;75.30
41953;DHT22;63613;28.200;112.870;2023-03-25T15:55:25;15.40;75.40
41953;DHT22;63613;28.200;112.870;2023-03-25T15:58:03;15.40;75.40
41953;DHT22;63613;28.200;112.870;2023-03-25T16:00:44;15.30;75.40
41953;DHT22;63613;28.200;112.870;2023-03-25T16:03:24;15.40;75.40
41953;DHT22;63613;28.200;112.870;2023-03-25T16:05:58;15.40;75.50
41953;DHT22;63613;28.200;112.870;2023-03-25T16:08:36;15.30;75.50
41953;DHT22;63613;28.200;112.870;2023-03-25T16:14:10;15.40;75.50
41953;DHT22;63613;28.200;112.870;2023-03-25T16:16:43;15.30;75.60
41953;DHT22;63613;28.200;112.870;2023-03-25T16:19:33;15.30;75.60
41953;DHT22;63613;28.200;112.870;2023-03-25T16:22:03;15.30;75.50
41953;DHT22;63613;28.200;112.870;2023-03-25T16:24:33;15.30;75.50
41953;DHT22;63613;28.200;112.870;2023-03-25T16:27:18;15.30;75.30
41953;DHT22;63613;28.200;112.870;2023-03-25T16:29:50;15.30;75.20
41953;DHT22;63613;28.200;112.870;2023-03-25T16:32:21;15.30;75.20
41953;DHT22;63613;28.200;112.870;2023-03-25T16:34:49;15.30;75.30
41953;DHT22;63613;28.200;112.870;2023-03-25T16:37:16;15.30;75.40
41953;DHT22;63613;28.200;112.870;2023-03-25T16:39:55;15.30;75.50
41953;DHT22;63613;28.200;112.870;2023-03-25T16:42:31;15.30;75.40
41953;DHT22;63613;28.200;112.870;2023-03-25T16:45:03;15.30;75.50
41953;DHT22;63613;28.200;112.870;2023-03-25T16:47:35;15.30;75.50
41953;DHT22;63613;28.200;112.870;2023-03-25T16:50:04;15.30;75.40
41953;DHT22;63613;28.200;112.870;2023-03-25T16:52:32;15.30;75.40
41953;DHT22;63613;28.200;112.870;2023-03-25T16:55:41;15.20;75.20
41953;DHT22;63613;28.200;112.870;2023-03-25T16:58:27;15.20;75.10
41953;DHT22;63613;28.200;112.870;2023-03-25T17:00:55;15.20;75.10
41953;DHT22;63613;28.200;112.870;2023-03-25T17:03:41;15.20;75.10
41953;DHT22;63613;28.200;112.870;2023-03-25T17:06:21;15.20;75.00
41953;DHT22;63613;28.200;112.870;2023-03-25T17:08:55;15.20;74.90
41953;DHT22;63613;28.200;112.870;2023-03-25T17:11:46;15.20;74.80
41953;DHT22;63613;28.200;112.870;2023-03-25T17:14:19;15.20;74.50
41953;DHT22;63613;28.200;112.870;2023-03-25T17:16:53;15.20;74.30
41953;DHT22;63613;28.200;112.870;2023-03-25T17:19:24;15.20;74.20
41953;DHT22;63613;28.200;112.870;2023-03-25T17:22:13;15.20;74.10
41953;DHT22;63613;28.200;112.870;2023-03-25T17:24:56;15.10;74.00
41953;DHT22;63613;28.200;112.870;2023-03-25T17:27:42;15.20;74.10
41953;DHT22;63613;28.200;112.870;2023-03-25T17:30:19;15.10;74.20
41953;DHT22;63613;28.200;112.870;2023-03-25T17:32:48;15.10;74.50
41953;DHT22;63613;28.200;112.870;2023-03-25T17:35:23;15.10;74.60
41953;DHT22;63613;28.200;112.870;2023-03-25T17:37:52;15.10;74.50
41953;DHT22;63613;28.200;112.870;2023-03-25T17:40:25;15.10;74.50
41953;DHT22;63613;28.200;112.870;2023-03-25T17:42:54;15.10;74.50
41953;DHT22;63613;28.200;112.870;2023-03-25T17:45:23;15.10;74.60
41953;DHT22;63613;28.200;112.870;2023-03-25T17:47:53;15.10;74.60
41953;DHT22;63613;28.200;112.870;2023-03-25T17:50:23;15.10;74.70
41953;DHT22;63613;28.200;112.870;2023-03-25T17:52:53;15.10;74.80
41953;DHT22;63613;28.200;112.870;2023-03-25T17:55:21;15.10;74.80
41953;DHT22;63613;28.200;112.870;2023-03-25T17:57:48;15.10;75.00
41953;DHT22;63613;28.200;112.870;2023-03-25T18:00:16;15.10;75.10
41953;DHT22;63613;28.200;112.870;2023-03-25T18:02:45;15.10;75.10